首页
METAR-TAF:

METAR-TAF

机场 :

东京直升机场, 日本

纬度: 35-38N, 经度: 139-51E, 海拔: 5米

当前天气观测

该预报发布于16分钟前的06:00 UTC
风速10节,风向,在南转南东西南之间变化
温度 32°C
湿度 75%
气压 1008 hPa
能见度10公里或以上
少量云层高于3000英尺, 塔状积云.
多云

METAR: RJTI 180600Z 18010KT 150V220 9999 FEW030TCU BKN/// 32/27 Q1008

时间: 15:16 (06:16 UTC)


TAF: 丢失

超过4000个机场的气象观测和天气预报(METAR&TAF报告)。

可查询的气象台以黄色和红色小点在地图上表示。

将鼠标移到小点上方,可查看气象台名称。

然后点击查看天气观测和预报。

如需切换地图:点击带黑十字的绿色按钮放大地图;点击带横线的绿色按钮缩小地图;或者点击绿色箭头查看邻近地区的地图。


METAR-TAF: